Accueil
METAR-TAF:

METAR-TAF

Aéroports :

Novare, Italie

Base aérienne Cameri

latitude: 45-31N, longitude: 008-40E, altitude: 178 m

Observation

Le bulletin a été fait il y a 45 minutes, à 09:55 UTC
Vent 5 kt de ouest
Température 4°C
Humidité 81%
Pression 1007 hPa
Visibilité: 5000 m
Nuages épars à une hauteur de 5000 ft
Ciel couvert à une hauteur de 6000 ft
faible bruine, brume

METAR: LIMN 220955Z 27005KT 5000 -DZ BR SCT050 OVC060 04/01 Q1007 RMK OVC VIS MIN 5000 WHT

Heure: 11:40 (10:40 UTC)

Prévision

Le bulletin a été fait il y a 2 heures et 40 minutes, à 08:00 UTC
Prévision valable du 22 à 09 UTC au 22 à 18 UTC
Vent 5 kt de direction variable
Visibilité: 5000 m
Nuages épars à une hauteur de 3000 ft
Nuages fragmentés à une hauteur de 4000 ft
brume
Temporairement
du 22 à 12 UTC au 22 à 18 UTC
Visibilité: 3000 m
pluie, brume

TAF: LIMN 220800Z 2209/2218 VRB05KT 5000 BR SCT030 BKN040 TEMPO 2212/2218 3000 RA BR

Observations et prévisions météorologiques de plus de 4000 aéroports (messages METAR et TAF).

Les stations disponibles sont représentées par des disques jaunes et rouges sur la carte.

Passer la souris dessus pour voir le nom de la station.

Cliquer dessus pour voir les observations et prévisions météorologiques.

Pour changer de carte: cliquez sur les boutons verts avec une croix noire pour zoomer, sur le bouton vert avec un tiret pour effectuer un zoom arrière, ou sur les flèches vertes pour les cartes adjacentes.


METAR-TAF: